createdAt,value
2018-07-04T00:00:11.021Z,0.00
2018-07-04T00:02:04.021Z,0.00
2018-07-04T00:03:04.082Z,0.00
2018-07-04T00:04:57.073Z,0.00
2018-07-04T00:05:57.141Z,0.00
2018-07-04T00:07:50.141Z,0.00
2018-07-04T00:08:50.198Z,0.00
2018-07-04T00:10:43.200Z,0.00
2018-07-04T00:11:43.258Z,0.00
2018-07-04T00:13:36.252Z,0.00
2018-07-04T00:14:36.316Z,0.00
2018-07-04T00:16:29.318Z,0.00
2018-07-04T00:17:29.379Z,0.00
2018-07-04T00:19:22.380Z,0.00
2018-07-04T00:20:22.441Z,0.00
2018-07-04T00:22:15.444Z,0.00
2018-07-04T00:23:15.502Z,0.00
2018-07-04T00:25:08.502Z,0.00
2018-07-04T00:26:08.566Z,0.00
2018-07-04T00:28:01.566Z,0.00
2018-07-04T00:29:01.622Z,0.00
2018-07-04T00:30:54.629Z,0.00
2018-07-04T00:31:54.694Z,0.00
2018-07-04T00:33:47.677Z,0.00
2018-07-04T00:34:47.741Z,0.00
2018-07-04T00:36:40.742Z,0.00
2018-07-04T00:37:40.798Z,0.00
2018-07-04T00:39:33.794Z,0.00
2018-07-04T00:40:33.858Z,0.00
2018-07-04T00:42:26.862Z,0.00
2018-07-04T00:43:26.920Z,0.00
2018-07-04T00:45:19.914Z,0.00
2018-07-04T00:46:19.980Z,0.00
2018-07-04T00:48:12.980Z,0.00
2018-07-04T00:49:13.040Z,0.00
2018-07-04T00:51:06.029Z,0.00
2018-07-04T00:52:06.097Z,0.00
2018-07-04T00:53:59.098Z,0.00
2018-07-04T00:54:59.152Z,0.00
2018-07-04T00:56:52.152Z,0.00
2018-07-04T00:57:52.212Z,0.00
2018-07-04T00:59:45.203Z,0.00
2018-07-04T01:00:45.267Z,0.00
2018-07-04T01:02:38.267Z,0.00
2018-07-04T01:03:38.330Z,0.00
2018-07-04T01:05:31.317Z,0.00
2018-07-04T01:06:31.384Z,0.00
2018-07-04T01:08:24.382Z,0.00
2018-07-04T01:09:24.443Z,0.00
2018-07-04T01:11:17.442Z,0.00
2018-07-04T01:12:17.503Z,0.00
2018-07-04T01:14:10.498Z,0.00
2018-07-04T01:15:10.556Z,0.00
2018-07-04T01:17:03.560Z,0.00
2018-07-04T01:18:03.613Z,0.00
2018-07-04T01:19:56.608Z,0.00
2018-07-04T01:20:56.674Z,0.00
2018-07-04T01:22:49.673Z,0.00
2018-07-04T01:23:49.746Z,0.00
2018-07-04T01:25:42.724Z,0.00
2018-07-04T01:26:42.790Z,0.00
2018-07-04T01:28:35.797Z,0.00
2018-07-04T01:29:35.856Z,0.00
2018-07-04T01:31:28.855Z,0.00
2018-07-04T01:32:31.881Z,0.00
2018-07-04T01:34:21.912Z,0.00
2018-07-04T01:35:21.971Z,0.00
2018-07-04T01:37:14.970Z,0.00
2018-07-04T01:38:15.029Z,0.00
2018-07-04T01:40:08.021Z,0.00
2018-07-04T01:41:08.084Z,0.00
2018-07-04T01:43:01.086Z,0.00
2018-07-04T01:44:01.145Z,0.00
2018-07-04T01:45:54.140Z,0.00
2018-07-04T01:46:54.202Z,0.00
2018-07-04T01:48:47.199Z,0.00
2018-07-04T01:49:47.258Z,0.00
2018-07-04T01:51:40.251Z,0.00
2018-07-04T01:52:40.318Z,0.00
2018-07-04T01:54:33.312Z,0.00
2018-07-04T01:55:33.373Z,0.00
2018-07-04T01:57:26.373Z,0.00
2018-07-04T01:58:26.426Z,0.00
2018-07-04T02:00:19.422Z,0.00
2018-07-04T02:01:19.483Z,0.00
2018-07-04T02:03:12.484Z,0.00
2018-07-04T02:04:12.543Z,0.00
2018-07-04T02:06:05.538Z,0.00
2018-07-04T02:07:05.600Z,0.00
2018-07-04T02:08:58.596Z,0.00
2018-07-04T02:09:58.656Z,0.00
2018-07-04T02:11:51.647Z,0.00
2018-07-04T02:12:51.712Z,0.00
2018-07-04T02:14:44.714Z,0.00
2018-07-04T02:15:44.769Z,0.00
2018-07-04T02:17:37.772Z,0.00
2018-07-04T02:18:37.829Z,0.00
2018-07-04T02:20:30.827Z,0.00
2018-07-04T02:21:30.884Z,0.00
2018-07-04T02:23:23.885Z,0.00
2018-07-04T02:24:23.941Z,0.00
2018-07-04T02:26:16.953Z,0.00
2018-07-04T02:27:16.998Z,0.00
2018-07-04T02:29:09.998Z,0.00
2018-07-04T02:30:10.058Z,0.00
2018-07-04T02:32:03.052Z,4.00
2018-07-04T02:33:03.119Z,4.00
2018-07-04T02:34:56.115Z,0.00
2018-07-04T02:35:56.173Z,4.00
2018-07-04T02:37:49.165Z,4.00
2018-07-04T02:38:49.228Z,0.00
2018-07-04T02:40:42.226Z,4.00
2018-07-04T02:41:42.284Z,4.00
2018-07-04T02:43:35.293Z,4.00
2018-07-04T02:44:35.340Z,8.00
2018-07-04T02:46:29.832Z,8.00
2018-07-04T02:47:29.893Z,8.00
2018-07-04T02:49:22.893Z,8.00
2018-07-04T02:50:23.187Z,12.00
2018-07-04T02:52:15.941Z,16.00
2018-07-04T02:53:16.007Z,16.00
2018-07-04T02:55:09.009Z,20.00
2018-07-04T02:56:09.062Z,24.00
2018-07-04T02:58:02.062Z,28.00
2018-07-04T02:59:02.120Z,36.00
2018-07-04T03:00:55.125Z,44.00
2018-07-04T03:01:55.183Z,44.00
2018-07-04T03:03:48.183Z,60.00
2018-07-04T03:04:48.240Z,64.00
2018-07-04T03:06:41.242Z,76.00
2018-07-04T03:07:41.297Z,80.00
2018-07-04T03:09:34.292Z,100.00
2018-07-04T03:10:34.350Z,108.00
2018-07-04T03:12:27.344Z,128.00
2018-07-04T03:13:27.409Z,144.00
2018-07-04T03:15:20.409Z,164.00
2018-07-04T03:16:20.464Z,180.00
2018-07-04T03:18:13.457Z,208.00
2018-07-04T03:19:13.521Z,224.00
2018-07-04T03:21:06.523Z,252.00
2018-07-04T03:22:06.579Z,268.00
2018-07-04T03:23:59.570Z,312.00
2018-07-04T03:24:59.638Z,332.00
2018-07-04T03:26:52.639Z,368.00
2018-07-04T03:27:52.692Z,388.00
2018-07-04T03:29:45.692Z,436.00
2018-07-04T03:30:45.749Z,460.00
2018-07-04T03:32:38.740Z,504.00
2018-07-04T03:33:38.804Z,524.00
2018-07-04T03:35:31.845Z,580.00
2018-07-04T03:36:31.859Z,604.00
2018-07-04T03:38:24.850Z,668.00
2018-07-04T03:39:24.917Z,704.00
2018-07-04T03:41:17.914Z,784.00
2018-07-04T03:42:17.969Z,820.00
2018-07-04T03:44:10.960Z,880.00
2018-07-04T03:45:11.024Z,912.00
2018-07-04T03:47:04.533Z,968.00
2018-07-04T03:48:04.588Z,1012.00
2018-07-04T03:49:57.579Z,1108.00
2018-07-04T03:50:57.642Z,1156.00
2018-07-04T03:52:50.640Z,1252.00
2018-07-04T03:53:50.696Z,1296.00
2018-07-04T03:55:43.695Z,1376.00
2018-07-04T03:56:43.752Z,1424.00
2018-07-04T03:58:36.746Z,1548.00
2018-07-04T03:59:36.806Z,1616.00
2018-07-04T04:01:29.803Z,1688.00
2018-07-04T04:02:29.861Z,1672.00
2018-07-04T04:04:22.851Z,1628.00
2018-07-04T04:05:22.914Z,1612.00
2018-07-04T04:07:15.957Z,1644.00
2018-07-04T04:08:15.972Z,1680.00
2018-07-04T04:10:08.959Z,1792.00
2018-07-04T04:11:09.058Z,1864.00
2018-07-04T04:13:02.023Z,2116.00
2018-07-04T04:14:02.081Z,2280.00
2018-07-04T04:15:55.087Z,2508.00
2018-07-04T04:16:55.135Z,2572.00
2018-07-04T04:18:48.125Z,2640.00
2018-07-04T04:19:48.234Z,2688.00
2018-07-04T04:21:41.186Z,2720.00
2018-07-04T04:22:41.244Z,2744.00
2018-07-04T04:24:34.236Z,2796.00
2018-07-04T04:25:34.299Z,2864.00
2018-07-04T04:27:27.298Z,3048.00
2018-07-04T04:28:27.353Z,3104.00
2018-07-04T04:30:20.345Z,3172.00
2018-07-04T04:31:20.409Z,3248.00
2018-07-04T04:33:13.404Z,3376.00
2018-07-04T04:34:13.463Z,3400.00
2018-07-04T04:36:06.462Z,3352.00
2018-07-04T04:37:06.523Z,3296.00
2018-07-04T04:38:59.525Z,3276.00
2018-07-04T04:39:59.582Z,3296.00
2018-07-04T04:41:52.588Z,3372.00
2018-07-04T04:42:52.639Z,3376.00
2018-07-04T04:44:45.631Z,3236.00
2018-07-04T04:45:45.694Z,3208.00
2018-07-04T04:47:38.697Z,3264.00
2018-07-04T04:48:38.756Z,3352.00
2018-07-04T04:50:31.745Z,3584.00
2018-07-04T04:51:31.807Z,3704.00
2018-07-04T04:53:24.809Z,4040.00
2018-07-04T04:54:24.879Z,4172.00
2018-07-04T04:56:17.857Z,4408.00
2018-07-04T04:57:17.921Z,4512.00
2018-07-04T04:59:10.919Z,4748.00
2018-07-04T05:00:10.977Z,4860.00
2018-07-04T05:02:03.975Z,4856.00
2018-07-04T05:03:04.040Z,4760.00
2018-07-04T05:04:57.039Z,4448.00
2018-07-04T05:05:57.095Z,4256.00
2018-07-04T05:07:50.110Z,4144.00
2018-07-04T05:08:50.151Z,4148.00
2018-07-04T05:10:43.144Z,4064.00
2018-07-04T05:11:43.207Z,3908.00
2018-07-04T05:13:36.208Z,3708.00
2018-07-04T05:14:36.263Z,3628.00
2018-07-04T05:16:29.257Z,3624.00
2018-07-04T05:17:29.323Z,3676.00
2018-07-04T05:19:22.324Z,3688.00
2018-07-04T05:20:22.379Z,3648.00
2018-07-04T05:22:15.372Z,3696.00
2018-07-04T05:23:15.436Z,3756.00
2018-07-04T05:25:08.435Z,3708.00
2018-07-04T05:26:08.493Z,3656.00
2018-07-04T05:28:01.514Z,3676.00
2018-07-04T05:29:01.552Z,3716.00
2018-07-04T05:30:54.543Z,3936.00
2018-07-04T05:31:54.611Z,4156.00
2018-07-04T05:33:47.609Z,4652.00
2018-07-04T05:34:47.665Z,4876.00
2018-07-04T05:36:40.658Z,5148.00
2018-07-04T05:37:40.723Z,5164.00
2018-07-04T05:39:33.728Z,5156.00
2018-07-04T05:40:33.786Z,5064.00
2018-07-04T05:42:26.926Z,4808.00
2018-07-04T05:43:26.849Z,4672.00
2018-07-04T05:45:19.845Z,4536.00
2018-07-04T05:46:19.904Z,4496.00
2018-07-04T05:48:12.901Z,4456.00
2018-07-04T05:49:12.958Z,4492.00
2018-07-04T05:51:05.951Z,4608.00
2018-07-04T05:52:06.116Z,4620.00
2018-07-04T05:53:59.014Z,4572.00
2018-07-04T05:54:59.073Z,4544.00
2018-07-04T05:56:52.064Z,4536.00
2018-07-04T05:57:52.129Z,4580.00
2018-07-04T05:59:45.128Z,4704.00
2018-07-04T06:00:45.235Z,4820.00
2018-07-04T06:02:38.229Z,5168.00
2018-07-04T06:03:38.245Z,5372.00
2018-07-04T06:05:31.248Z,5540.00
2018-07-04T06:06:31.306Z,5596.00
2018-07-04T06:08:24.346Z,5552.00
2018-07-04T06:09:24.422Z,5548.00
2018-07-04T06:11:17.361Z,5416.00
2018-07-04T06:12:17.428Z,5364.00
2018-07-04T06:14:10.429Z,5496.00
2018-07-04T06:15:10.486Z,5680.00
2018-07-04T06:17:03.503Z,6076.00
2018-07-04T06:18:03.544Z,6348.00
2018-07-04T06:19:56.544Z,6940.00
2018-07-04T06:20:56.601Z,7392.00
2018-07-04T06:22:49.595Z,8356.00
2018-07-04T06:23:49.659Z,8840.00
2018-07-04T06:25:42.657Z,9528.00
2018-07-04T06:26:42.717Z,10032.00
2018-07-04T06:28:35.710Z,11128.00
2018-07-04T06:29:35.774Z,11528.00
2018-07-04T06:31:28.781Z,11940.00
2018-07-04T06:32:28.885Z,11720.00
2018-07-04T06:34:21.836Z,12336.00
2018-07-04T06:35:21.895Z,10576.00
2018-07-04T06:37:14.889Z,9808.00
2018-07-04T06:38:14.955Z,9936.00
2018-07-04T06:40:07.964Z,11144.00
2018-07-04T06:41:08.016Z,12040.00
2018-07-04T06:43:01.010Z,13644.00
2018-07-04T06:44:01.075Z,15164.00
2018-07-04T06:45:54.079Z,15812.00
2018-07-04T06:46:54.141Z,17824.00
2018-07-04T06:48:47.184Z,22464.00
2018-07-04T06:49:47.200Z,31712.00
2018-07-04T06:51:40.214Z,36896.00
2018-07-04T06:52:40.268Z,37120.00
2018-07-04T06:54:33.422Z,45440.00
2018-07-04T06:55:33.345Z,21696.00
2018-07-04T06:57:26.349Z,19616.00
2018-07-04T06:58:26.418Z,38368.00
2018-07-04T07:00:19.426Z,19008.00
2018-07-04T07:01:19.494Z,19840.00
2018-07-04T07:03:12.485Z,27104.00
2018-07-04T07:04:12.555Z,46976.00
2018-07-04T07:06:05.558Z,56512.00
2018-07-04T07:07:05.625Z,56864.00
2018-07-04T07:08:58.635Z,50720.00
2018-07-04T07:09:58.699Z,47648.00
2018-07-04T07:11:51.706Z,30560.00
2018-07-04T07:12:51.773Z,17856.00
2018-07-04T07:14:44.780Z,14624.00
2018-07-04T07:15:44.852Z,15004.00
2018-07-04T07:17:37.863Z,14352.00
2018-07-04T07:18:37.932Z,13820.00
2018-07-04T07:20:30.939Z,12928.00
2018-07-04T07:21:31.004Z,12876.00
2018-07-04T07:23:24.012Z,13788.00
2018-07-04T07:24:24.080Z,14500.00
2018-07-04T07:26:17.089Z,15932.00
2018-07-04T07:27:17.339Z,16576.00
2018-07-04T07:29:10.170Z,17184.00
2018-07-04T07:30:10.229Z,19264.00
2018-07-04T07:32:03.753Z,17472.00
2018-07-04T07:33:03.811Z,18112.00
2018-07-04T07:34:56.815Z,19456.00
2018-07-04T07:35:56.883Z,20192.00
2018-07-04T07:37:49.891Z,20448.00
2018-07-04T07:38:49.954Z,20768.00
2018-07-04T07:40:42.972Z,35168.00
2018-07-04T07:41:43.026Z,50944.00
2018-07-04T07:43:36.030Z,33984.00
2018-07-04T07:44:36.097Z,38944.00
2018-07-04T07:46:29.106Z,36704.00
2018-07-04T07:47:29.170Z,55424.00
2018-07-04T07:49:22.179Z,40896.00
2018-07-04T07:50:22.251Z,44608.00
2018-07-04T07:52:15.265Z,34592.00
2018-07-04T07:53:15.331Z,40480.00
2018-07-04T07:55:08.338Z,26144.00
2018-07-04T07:56:08.414Z,23648.00
2018-07-04T07:58:01.438Z,29984.00
2018-07-04T07:59:01.492Z,32928.00
2018-07-04T08:00:54.509Z,28256.00
2018-07-04T08:01:54.619Z,31968.00
2018-07-04T08:03:47.600Z,27776.00
2018-07-04T08:04:47.665Z,30528.00
2018-07-04T08:06:40.682Z,35680.00
2018-07-04T08:07:40.748Z,38400.00
2018-07-04T08:09:33.760Z,43360.00
2018-07-04T08:10:33.831Z,29920.00
2018-07-04T08:12:26.849Z,36288.00
2018-07-04T08:13:26.917Z,43712.00
2018-07-04T08:15:19.926Z,61408.00
2018-07-04T08:16:20.004Z,39296.00
2018-07-04T08:18:13.021Z,33184.00
2018-07-04T08:19:13.089Z,36192.00
2018-07-04T08:21:06.102Z,45632.00
2018-07-04T08:22:06.176Z,44800.00
2018-07-04T08:23:59.196Z,61728.00
2018-07-04T08:24:59.264Z,31232.00
2018-07-04T08:26:52.279Z,97472.00
2018-07-04T08:27:52.357Z,94272.00
2018-07-04T08:29:45.379Z,88160.00
2018-07-04T08:30:45.447Z,84192.00
2018-07-04T08:32:38.983Z,82016.00
2018-07-04T08:33:39.050Z,84288.00
2018-07-04T08:35:32.065Z,93312.00
2018-07-04T08:36:32.147Z,94432.00
2018-07-04T08:38:25.169Z,87104.00
2018-07-04T08:39:25.251Z,86496.00
2018-07-04T08:41:18.262Z,93888.00
2018-07-04T08:42:18.342Z,55744.00
2018-07-04T08:44:11.375Z,57792.00
2018-07-04T08:45:11.440Z,53792.00
2018-07-04T08:47:04.464Z,75840.00
2018-07-04T08:48:04.544Z,80192.00
2018-07-04T08:49:57.569Z,80864.00
2018-07-04T08:50:57.643Z,84384.00
2018-07-04T08:52:50.674Z,85056.00
2018-07-04T08:53:50.746Z,85344.00
2018-07-04T08:55:43.774Z,79616.00
2018-07-04T08:56:43.848Z,80064.00
2018-07-04T08:58:36.923Z,67776.00
2018-07-04T08:59:36.958Z,70176.00
2018-07-04T09:01:29.970Z,46624.00
2018-07-04T09:02:30.051Z,52416.00
2018-07-04T09:04:23.079Z,56864.00
2018-07-04T09:05:23.152Z,57984.00
2018-07-04T09:07:16.175Z,57984.00
2018-07-04T09:08:16.253Z,55744.00
2018-07-04T09:10:09.279Z,37792.00
2018-07-04T09:11:09.351Z,39040.00
2018-07-04T09:13:02.377Z,35392.00
2018-07-04T09:14:02.455Z,33504.00
2018-07-04T09:15:55.482Z,45056.00
2018-07-04T09:16:55.561Z,53056.00
2018-07-04T09:18:48.581Z,74272.00
2018-07-04T09:19:48.681Z,74432.00
2018-07-04T09:21:41.676Z,60160.00
2018-07-04T09:22:41.753Z,66912.00
2018-07-04T09:24:34.780Z,66624.00
2018-07-04T09:25:34.848Z,63680.00
2018-07-04T09:27:27.869Z,70912.00
2018-07-04T09:28:27.947Z,59104.00
2018-07-04T09:30:20.972Z,69696.00
2018-07-04T09:31:21.045Z,69056.00
2018-07-04T09:33:14.063Z,71520.00
2018-07-04T09:34:14.141Z,72672.00
2018-07-04T09:36:07.185Z,40000.00
2018-07-04T09:37:07.256Z,22208.00
2018-07-04T09:39:00.285Z,21056.00
2018-07-04T09:40:00.357Z,20320.00
2018-07-04T09:41:53.374Z,25344.00
2018-07-04T09:42:53.453Z,24416.00
2018-07-04T09:44:46.477Z,20832.00
2018-07-04T09:45:46.547Z,20512.00
2018-07-04T09:47:39.599Z,17888.00
2018-07-04T09:48:39.640Z,18560.00
2018-07-04T09:50:32.660Z,18848.00
2018-07-04T09:51:32.730Z,19296.00
2018-07-04T09:53:25.743Z,18848.00
2018-07-04T09:54:25.818Z,19040.00
2018-07-04T09:56:18.838Z,18720.00
2018-07-04T09:57:18.905Z,18496.00
2018-07-04T09:59:11.927Z,18592.00
2018-07-04T10:00:11.994Z,19296.00
2018-07-04T10:02:05.010Z,19200.00
2018-07-04T10:03:05.081Z,18208.00
2018-07-04T10:04:58.101Z,16644.00
2018-07-04T10:05:58.167Z,16008.00
2018-07-04T10:07:51.185Z,13196.00
2018-07-04T10:08:51.253Z,12492.00
2018-07-04T10:10:44.271Z,11908.00
2018-07-04T10:11:44.338Z,11736.00
2018-07-04T10:13:37.354Z,11408.00
2018-07-04T10:14:37.423Z,11232.00
2018-07-04T10:16:30.440Z,11200.00
2018-07-04T10:17:30.510Z,11420.00
2018-07-04T10:19:23.527Z,11928.00
2018-07-04T10:20:23.593Z,11844.00
2018-07-04T10:22:16.609Z,11420.00
2018-07-04T10:23:16.683Z,11264.00
2018-07-04T10:25:09.699Z,11164.00
2018-07-04T10:26:09.765Z,11160.00
2018-07-04T10:28:02.774Z,10944.00
2018-07-04T10:29:02.847Z,10848.00
2018-07-04T10:30:55.867Z,10812.00
2018-07-04T10:31:55.927Z,10908.00
2018-07-04T10:33:48.941Z,10948.00
2018-07-04T10:34:49.016Z,10996.00
2018-07-04T10:36:42.035Z,11052.00
2018-07-04T10:37:42.113Z,10860.00
2018-07-04T10:39:35.108Z,10516.00
2018-07-04T10:40:35.174Z,10368.00
2018-07-04T10:42:28.184Z,10272.00
2018-07-04T10:43:28.255Z,10304.00
2018-07-04T10:45:21.272Z,10716.00
2018-07-04T10:46:21.337Z,11256.00
2018-07-04T10:48:14.345Z,11960.00
2018-07-04T10:49:14.415Z,11636.00
2018-07-04T10:51:07.427Z,10896.00
2018-07-04T10:52:07.495Z,10704.00
2018-07-04T10:54:00.503Z,10620.00
2018-07-04T10:55:00.574Z,10456.00
2018-07-04T10:56:53.590Z,10004.00
2018-07-04T10:57:53.682Z,9804.00
2018-07-04T10:59:46.694Z,9676.00
2018-07-04T11:00:46.733Z,9568.00
2018-07-04T11:02:39.743Z,9228.00
2018-07-04T11:03:39.814Z,9012.00
2018-07-04T11:05:32.827Z,8932.00
2018-07-04T11:06:32.892Z,8960.00
2018-07-04T11:08:25.903Z,8700.00
2018-07-04T11:09:25.973Z,8532.00
2018-07-04T11:11:18.999Z,8176.00
2018-07-04T11:12:19.057Z,8060.00
2018-07-04T11:14:12.070Z,8672.00
2018-07-04T11:15:12.138Z,8984.00
2018-07-04T11:17:05.323Z,8676.00
2018-07-04T11:18:05.240Z,8424.00
2018-07-04T11:19:58.223Z,8176.00
2018-07-04T11:20:58.294Z,8216.00
2018-07-04T11:22:51.312Z,8088.00
2018-07-04T11:23:51.376Z,8060.00
2018-07-04T11:25:44.387Z,8032.00
2018-07-04T11:26:44.452Z,8160.00
2018-07-04T11:28:37.461Z,8448.00
2018-07-04T11:29:37.530Z,8596.00
2018-07-04T11:31:30.547Z,8892.00
2018-07-04T11:32:30.607Z,9148.00
2018-07-04T11:34:23.615Z,9096.00
2018-07-04T11:35:23.685Z,8956.00
2018-07-04T11:37:16.699Z,9064.00
2018-07-04T11:38:16.806Z,9280.00
2018-07-04T11:40:09.768Z,9512.00
2018-07-04T11:41:09.840Z,9592.00
2018-07-04T11:43:02.854Z,9772.00
2018-07-04T11:44:02.917Z,9852.00
2018-07-04T11:45:55.930Z,9612.00
2018-07-04T11:46:55.996Z,9736.00
2018-07-04T11:48:49.004Z,11732.00
2018-07-04T11:49:49.071Z,12896.00
2018-07-04T11:51:42.087Z,12900.00
2018-07-04T11:52:42.152Z,12504.00
2018-07-04T11:54:35.164Z,11676.00
2018-07-04T11:55:35.228Z,11512.00
2018-07-04T11:57:28.238Z,11444.00
2018-07-04T11:58:28.308Z,10944.00
2018-07-04T12:00:21.315Z,10180.00
2018-07-04T12:01:21.388Z,9980.00
2018-07-04T12:03:14.398Z,9824.00
2018-07-04T12:04:14.463Z,9436.00
2018-07-04T12:06:07.475Z,8620.00
2018-07-04T12:07:07.541Z,8460.00
2018-07-04T12:09:00.549Z,8408.00
2018-07-04T12:10:00.620Z,8492.00
2018-07-04T12:11:53.630Z,8452.00
2018-07-04T12:12:53.695Z,8144.00
2018-07-04T12:14:46.701Z,7824.00
2018-07-04T12:15:46.775Z,7796.00
2018-07-04T12:17:39.784Z,7872.00
2018-07-04T12:18:39.848Z,7880.00
2018-07-04T12:20:32.863Z,7956.00
2018-07-04T12:21:32.936Z,8032.00
2018-07-04T12:23:25.948Z,8076.00
2018-07-04T12:24:26.013Z,8136.00
2018-07-04T12:26:19.020Z,7960.00
2018-07-04T12:27:19.089Z,7808.00
2018-07-04T12:29:12.104Z,7656.00
2018-07-04T12:30:12.170Z,7600.00
2018-07-04T12:32:05.781Z,7628.00
2018-07-04T12:33:05.755Z,7544.00
2018-07-04T12:34:58.764Z,7384.00
2018-07-04T12:35:58.836Z,7336.00
2018-07-04T12:37:51.845Z,7184.00
2018-07-04T12:38:51.912Z,7168.00
2018-07-04T12:40:44.921Z,7136.00
2018-07-04T12:41:44.997Z,7136.00
2018-07-04T12:43:38.098Z,7160.00
2018-07-04T12:44:38.069Z,7116.00
2018-07-04T12:46:31.078Z,7092.00
2018-07-04T12:47:31.146Z,7120.00
2018-07-04T12:49:24.160Z,7156.00
2018-07-04T12:50:24.225Z,7228.00
2018-07-04T12:52:17.236Z,6980.00
2018-07-04T12:53:17.300Z,6916.00
2018-07-04T12:55:10.307Z,6716.00
2018-07-04T12:56:10.380Z,6692.00
2018-07-04T12:58:03.392Z,6844.00
2018-07-04T12:59:03.456Z,6672.00
2018-07-04T13:00:56.464Z,6268.00
2018-07-04T13:01:56.536Z,6052.00
2018-07-04T13:03:49.549Z,5960.00
2018-07-04T13:04:49.609Z,6056.00
2018-07-04T13:06:42.624Z,6480.00
2018-07-04T13:07:42.692Z,6712.00
2018-07-04T13:09:35.702Z,6400.00
2018-07-04T13:10:35.767Z,6272.00
2018-07-04T13:12:28.782Z,6144.00
2018-07-04T13:13:28.845Z,6084.00
2018-07-04T13:15:21.860Z,6236.00
2018-07-04T13:16:21.927Z,6376.00
2018-07-04T13:18:14.944Z,6380.00
2018-07-04T13:19:15.009Z,6336.00
2018-07-04T13:21:08.014Z,6580.00
2018-07-04T13:22:08.085Z,6860.00
2018-07-04T13:24:01.090Z,6988.00
2018-07-04T13:25:01.158Z,7036.00
2018-07-04T13:26:54.164Z,6860.00
2018-07-04T13:27:54.233Z,6784.00
2018-07-04T13:29:47.253Z,6664.00
2018-07-04T13:30:47.319Z,6564.00
2018-07-04T13:32:40.836Z,6608.00
2018-07-04T13:33:40.905Z,6720.00
2018-07-04T13:35:33.914Z,6980.00
2018-07-04T13:36:33.981Z,6956.00
2018-07-04T13:38:27.045Z,6736.00
2018-07-04T13:39:27.058Z,6640.00
2018-07-04T13:41:20.067Z,6536.00
2018-07-04T13:42:20.136Z,6576.00
2018-07-04T13:44:13.181Z,6912.00
2018-07-04T13:45:13.212Z,7144.00
2018-07-04T13:47:06.221Z,7256.00
2018-07-04T13:48:06.291Z,7328.00
2018-07-04T13:49:59.301Z,7440.00
2018-07-04T13:50:59.645Z,7396.00
2018-07-04T13:52:52.372Z,7588.00
2018-07-04T13:53:52.444Z,7656.00
2018-07-04T13:55:45.463Z,7548.00
2018-07-04T13:56:45.521Z,7424.00
2018-07-04T13:58:38.552Z,7288.00
2018-07-04T13:59:38.599Z,7220.00
2018-07-04T14:01:31.604Z,7024.00
2018-07-04T14:02:31.688Z,6912.00
2018-07-04T14:04:24.689Z,7020.00
2018-07-04T14:05:24.754Z,7152.00
2018-07-04T14:07:17.763Z,7576.00
2018-07-04T14:08:17.833Z,8096.00
2018-07-04T14:10:10.897Z,8540.00
2018-07-04T14:11:10.912Z,8604.00
2018-07-04T14:13:03.918Z,8520.00
2018-07-04T14:14:03.989Z,8708.00
2018-07-04T14:15:57.003Z,8784.00
2018-07-04T14:16:57.070Z,9100.00
2018-07-04T14:18:50.101Z,9860.00
2018-07-04T14:19:50.145Z,10172.00
2018-07-04T14:21:43.157Z,10084.00
2018-07-04T14:22:43.222Z,9784.00
2018-07-04T14:24:36.233Z,9284.00
2018-07-04T14:25:36.315Z,9172.00
2018-07-04T14:27:29.313Z,9308.00
2018-07-04T14:28:29.381Z,8484.00
2018-07-04T14:30:22.398Z,6996.00
2018-07-04T14:31:22.469Z,6620.00
2018-07-04T14:33:15.473Z,6396.00
2018-07-04T14:34:15.543Z,6080.00
2018-07-04T14:36:08.554Z,4928.00
2018-07-04T14:37:08.620Z,4544.00
2018-07-04T14:39:01.633Z,3956.00
2018-07-04T14:40:01.703Z,3592.00
2018-07-04T14:41:54.718Z,2896.00
2018-07-04T14:42:54.780Z,2604.00
2018-07-04T14:44:47.792Z,2180.00
2018-07-04T14:45:47.857Z,1972.00
2018-07-04T14:47:40.871Z,1664.00
2018-07-04T14:48:40.936Z,1544.00
2018-07-04T14:50:33.949Z,1464.00
2018-07-04T14:51:34.013Z,1560.00
2018-07-04T14:53:27.020Z,1976.00
2018-07-04T14:54:27.093Z,2264.00
2018-07-04T14:56:20.135Z,2696.00
2018-07-04T14:57:20.191Z,2936.00
2018-07-04T14:59:13.194Z,3040.00
2018-07-04T15:00:13.266Z,2956.00
2018-07-04T15:02:06.340Z,2944.00
2018-07-04T15:03:06.342Z,2944.00
2018-07-04T15:04:59.354Z,2980.00
2018-07-04T15:05:59.419Z,3032.00
2018-07-04T15:07:52.430Z,3152.00
2018-07-04T15:08:52.494Z,3184.00
2018-07-04T15:10:45.521Z,3380.00
2018-07-04T15:11:45.586Z,3504.00
2018-07-04T15:13:38.585Z,3712.00
2018-07-04T15:14:38.655Z,3784.00
2018-07-04T15:16:31.664Z,3888.00
2018-07-04T15:17:31.731Z,4012.00
2018-07-04T15:19:24.734Z,4268.00
2018-07-04T15:20:24.800Z,4400.00
2018-07-04T15:22:17.851Z,4680.00
2018-07-04T15:23:17.872Z,4876.00
2018-07-04T15:25:10.879Z,5260.00
2018-07-04T15:26:10.947Z,5496.00
2018-07-04T15:28:04.490Z,6060.00
2018-07-04T15:29:04.527Z,6392.00
2018-07-04T15:30:57.548Z,7036.00
2018-07-04T15:31:57.601Z,7364.00
2018-07-04T15:33:50.608Z,8060.00
2018-07-04T15:34:50.675Z,8548.00
2018-07-04T15:36:43.689Z,9444.00
2018-07-04T15:37:43.751Z,9832.00
2018-07-04T15:39:36.758Z,10108.00
2018-07-04T15:40:36.823Z,10172.00
2018-07-04T15:42:29.833Z,10036.00
2018-07-04T15:43:29.895Z,9836.00
2018-07-04T15:45:22.904Z,9176.00
2018-07-04T15:46:22.973Z,8816.00
2018-07-04T15:48:15.981Z,8272.00
2018-07-04T15:49:16.047Z,7976.00
2018-07-04T15:51:09.057Z,7496.00
2018-07-04T15:52:09.120Z,7144.00
2018-07-04T15:54:02.132Z,6508.00
2018-07-04T15:55:02.196Z,6260.00
2018-07-04T15:56:55.207Z,5996.00
2018-07-04T15:57:55.271Z,5960.00
2018-07-04T15:59:48.413Z,5780.00
2018-07-04T16:00:48.348Z,5580.00
2018-07-04T16:02:41.364Z,5276.00
2018-07-04T16:03:41.428Z,5152.00
2018-07-04T16:05:34.944Z,4960.00
2018-07-04T16:06:35.015Z,4896.00
2018-07-04T16:08:28.054Z,4856.00
2018-07-04T16:09:28.099Z,4840.00
2018-07-04T16:11:21.100Z,4672.00
2018-07-04T16:12:21.177Z,4580.00
2018-07-04T16:14:14.184Z,4452.00
2018-07-04T16:15:14.248Z,4408.00
2018-07-04T16:17:07.258Z,4424.00
2018-07-04T16:18:07.321Z,4408.00
2018-07-04T16:20:01.836Z,4524.00
2018-07-04T16:21:01.906Z,4504.00
2018-07-04T16:22:56.422Z,4316.00
2018-07-04T16:23:56.491Z,4224.00
2018-07-04T16:25:50.002Z,4072.00
2018-07-04T16:26:50.067Z,4000.00
2018-07-04T16:28:43.588Z,3900.00
2018-07-04T16:29:43.649Z,3880.00
2018-07-04T16:31:36.658Z,3864.00
2018-07-04T16:32:36.791Z,3856.00
2018-07-04T16:34:29.738Z,3820.00
2018-07-04T16:35:29.802Z,3792.00
2018-07-04T16:37:22.807Z,3724.00
2018-07-04T16:38:22.873Z,3672.00
2018-07-04T16:40:17.415Z,3552.00
2018-07-04T16:41:17.468Z,3528.00
2018-07-04T16:43:10.480Z,3424.00
2018-07-04T16:44:10.546Z,3352.00
2018-07-04T16:46:03.549Z,3172.00
2018-07-04T16:47:03.620Z,3064.00
2018-07-04T16:48:56.635Z,2836.00
2018-07-04T16:49:56.716Z,2704.00
2018-07-04T16:51:49.697Z,2436.00
2018-07-04T16:52:49.767Z,2300.00
2018-07-04T16:54:43.287Z,2048.00
2018-07-04T16:55:43.346Z,1940.00
2018-07-04T16:57:36.898Z,1800.00
2018-07-04T16:58:36.925Z,1748.00
2018-07-04T17:00:31.447Z,1676.00
2018-07-04T17:01:31.507Z,1636.00
2018-07-04T17:03:25.028Z,1568.00
2018-07-04T17:04:25.093Z,1536.00
2018-07-04T17:06:18.089Z,1484.00
2018-07-04T17:07:18.162Z,1460.00
2018-07-04T17:09:11.682Z,1432.00
2018-07-04T17:10:11.742Z,1420.00
2018-07-04T17:12:04.781Z,1392.00
2018-07-04T17:13:04.812Z,1372.00
2018-07-04T17:14:57.836Z,1352.00
2018-07-04T17:15:57.900Z,1352.00
2018-07-04T17:17:50.899Z,1352.00
2018-07-04T17:18:50.968Z,1360.00
2018-07-04T17:20:43.975Z,1364.00
2018-07-04T17:21:44.038Z,1356.00
2018-07-04T17:23:37.068Z,1328.00
2018-07-04T17:24:37.116Z,1324.00
2018-07-04T17:26:30.209Z,1332.00
2018-07-04T17:27:30.202Z,1340.00
2018-07-04T17:29:23.213Z,1380.00
2018-07-04T17:30:23.275Z,1396.00
2018-07-04T17:32:16.282Z,1412.00
2018-07-04T17:33:16.355Z,1412.00
2018-07-04T17:35:09.367Z,1432.00
2018-07-04T17:36:09.441Z,1444.00